QDA1462 ZWYN-ZWKM
Flight info
| Callsign | QDA1462 |
|---|---|
| Flight time | 1h 13m |
| Altitude | 18700 |
| Route | P1601D P165 P165R9 |
| Aircraft | A320/M-SDE3FGHIRWY/LB1 |
Departure
| Time | 2025-10-24 03:25 |
|---|---|
| Airport | Ili Yining International Airport (ZWYN) |
Arrival
| Time | 2025-10-24 04:38 |
|---|---|
| Airport | Karamay Airport (ZWKM) |
| Time | Latitude | Longitude | Altitude | Speed | Heading |
|---|---|---|---|---|---|
| 2025-10-24 03:07 | 43.95342 | 81.33191 | 2244 ft | 0 kts | 152° |
| 2025-10-24 03:18 | 43.95377 | 81.33165 | 2240 ft | 8 kts | 154° |
| 2025-10-24 03:18 | 43.95392 | 81.33156 | 2241 ft | 2 kts | 190° |
| 2025-10-24 03:18 | 43.95405 | 81.33172 | 2239 ft | 0 kts | 238° |
| 2025-10-24 03:21 | 43.95369 | 81.33085 | 2238 ft | 11 kts | 241° |
| 2025-10-24 03:21 | 43.95370 | 81.33000 | 2243 ft | 10 kts | 318° |
| 2025-10-24 03:21 | 43.95512 | 81.32801 | 2239 ft | 16 kts | 244° |
| 2025-10-24 03:22 | 43.95422 | 81.32578 | 2239 ft | 10 kts | 241° |
| 2025-10-24 03:22 | 43.95342 | 81.32372 | 2240 ft | 16 kts | 241° |
| 2025-10-24 03:23 | 43.95240 | 81.32113 | 2240 ft | 20 kts | 239° |
| 2025-10-24 03:24 | 43.95116 | 81.31799 | 2237 ft | 4 kts | 60° |
| 2025-10-24 03:24 | 43.95245 | 81.32129 | 2240 ft | 72 kts | 60° |
| 2025-10-24 03:25 | 43.96094 | 81.34324 | 2706 ft | 154 kts | 63° |
| 2025-10-24 03:25 | 43.96658 | 81.35607 | 3505 ft | 159 kts | 43° |
| 2025-10-24 03:25 | 43.97930 | 81.37913 | 4691 ft | 166 kts | 93° |
| 2025-10-24 03:26 | 43.97516 | 81.41462 | 5184 ft | 209 kts | 95° |
| 2025-10-24 03:26 | 43.98518 | 81.45616 | 5863 ft | 256 kts | 61° |
| 2025-10-24 03:27 | 44.00437 | 81.50022 | 7280 ft | 273 kts | 59° |
| 2025-10-24 03:27 | 44.02454 | 81.54625 | 8834 ft | 285 kts | 59° |
| 2025-10-24 03:28 | 44.04549 | 81.59442 | 10465 ft | 298 kts | 58° |
| 2025-10-24 03:28 | 44.06855 | 81.64742 | 10954 ft | 344 kts | 58° |
| 2025-10-24 03:29 | 44.09465 | 81.70748 | 11697 ft | 373 kts | 58° |
| 2025-10-24 03:30 | 44.13540 | 81.80181 | 13839 ft | 385 kts | 58° |
| 2025-10-24 03:30 | 44.16302 | 81.86620 | 15089 ft | 390 kts | 58° |
| 2025-10-24 03:30 | 44.17699 | 81.89875 | 15706 ft | 393 kts | 58° |
| 2025-10-24 03:31 | 44.21956 | 81.99759 | 17446 ft | 400 kts | 57° |
| 2025-10-24 03:31 | 44.23391 | 82.03100 | 18012 ft | 403 kts | 57° |
| 2025-10-24 03:32 | 44.27734 | 82.13270 | 19071 ft | 413 kts | 57° |
| 2025-10-24 03:33 | 44.30749 | 82.20352 | 19109 ft | 439 kts | 57° |
| 2025-10-24 03:33 | 44.33875 | 82.27729 | 19127 ft | 442 kts | 58° |
| 2025-10-24 03:34 | 44.37003 | 82.35121 | 19137 ft | 442 kts | 58° |
| 2025-10-24 03:34 | 44.38567 | 82.38821 | 19142 ft | 442 kts | 58° |
| 2025-10-24 03:35 | 44.43244 | 82.49916 | 19161 ft | 441 kts | 58° |
| 2025-10-24 03:35 | 44.46359 | 82.57319 | 19177 ft | 441 kts | 58° |
| 2025-10-24 03:35 | 44.47917 | 82.61022 | 19182 ft | 441 kts | 58° |
| 2025-10-24 03:36 | 44.52541 | 82.72081 | 19181 ft | 423 kts | 58° |
| 2025-10-24 03:37 | 44.55372 | 82.78884 | 19187 ft | 385 kts | 58° |
| 2025-10-24 03:37 | 44.57956 | 82.85099 | 19188 ft | 353 kts | 58° |
| 2025-10-24 03:38 | 44.60319 | 82.90782 | 19189 ft | 330 kts | 57° |
| 2025-10-24 03:38 | 44.61524 | 82.93553 | 19192 ft | 328 kts | 56° |
| 2025-10-24 03:38 | 44.63966 | 82.98943 | 19195 ft | 327 kts | 56° |
| 2025-10-24 03:39 | 44.66410 | 83.04328 | 19198 ft | 327 kts | 56° |
| 2025-10-24 03:39 | 44.68836 | 83.09729 | 19199 ft | 327 kts | 56° |
| 2025-10-24 03:40 | 44.72435 | 83.17820 | 19201 ft | 327 kts | 56° |
| 2025-10-24 03:41 | 44.74839 | 83.23247 | 19203 ft | 327 kts | 56° |
| 2025-10-24 03:41 | 44.77243 | 83.28678 | 19206 ft | 327 kts | 56° |
| 2025-10-24 03:41 | 44.78443 | 83.31392 | 19207 ft | 327 kts | 56° |
| 2025-10-24 03:42 | 44.80847 | 83.36823 | 19209 ft | 327 kts | 56° |
| 2025-10-24 03:42 | 44.83242 | 83.42263 | 19208 ft | 327 kts | 57° |
| 2025-10-24 03:43 | 44.85636 | 83.47705 | 19209 ft | 327 kts | 57° |
| 2025-10-24 03:43 | 44.88029 | 83.53146 | 19208 ft | 326 kts | 57° |
| 2025-10-24 03:44 | 44.91607 | 83.61312 | 19209 ft | 326 kts | 57° |
| 2025-10-24 03:44 | 44.92803 | 83.64031 | 19211 ft | 326 kts | 57° |
| 2025-10-24 03:45 | 44.95186 | 83.69478 | 19207 ft | 326 kts | 57° |
| 2025-10-24 03:45 | 44.97559 | 83.74929 | 19207 ft | 326 kts | 57° |
| 2025-10-24 03:46 | 44.99929 | 83.80380 | 19210 ft | 326 kts | 57° |
| 2025-10-24 03:46 | 45.02372 | 83.86006 | 19201 ft | 355 kts | 57° |
| 2025-10-24 03:47 | 45.05142 | 83.92375 | 18784 ft | 406 kts | 57° |
| 2025-10-24 03:48 | 45.11176 | 84.06365 | 17722 ft | 418 kts | 58° |
| 2025-10-24 03:48 | 45.12683 | 84.09876 | 17454 ft | 417 kts | 58° |
| 2025-10-24 03:49 | 45.15682 | 84.16870 | 16923 ft | 414 kts | 58° |
| 2025-10-24 03:49 | 45.17176 | 84.20349 | 16669 ft | 413 kts | 58° |
| 2025-10-24 03:49 | 45.20151 | 84.27278 | 16155 ft | 410 kts | 58° |
| 2025-10-24 03:50 | 45.24555 | 84.37591 | 14945 ft | 403 kts | 58° |
| 2025-10-24 03:50 | 45.26000 | 84.40984 | 14337 ft | 400 kts | 58° |
| 2025-10-24 03:51 | 45.28849 | 84.47693 | 13111 ft | 392 kts | 58° |
| 2025-10-24 03:51 | 45.31632 | 84.54266 | 11937 ft | 385 kts | 58° |
| 2025-10-24 03:52 | 45.35561 | 84.63563 | 11391 ft | 344 kts | 58° |
| 2025-10-24 03:53 | 45.37932 | 84.69179 | 11139 ft | 320 kts | 58° |
| 2025-10-24 03:53 | 45.40698 | 84.73717 | 10861 ft | 297 kts | 26° |
| 2025-10-24 03:53 | 45.42634 | 84.74567 | 10681 ft | 290 kts | 4° |
| 2025-10-24 03:54 | 45.46420 | 84.73078 | 10190 ft | 290 kts | 330° |
| 2025-10-24 03:54 | 45.49987 | 84.70275 | 9345 ft | 291 kts | 330° |
| 2025-10-24 03:55 | 45.53655 | 84.67361 | 7783 ft | 315 kts | 331° |
| 2025-10-24 03:55 | 45.57599 | 84.64237 | 6583 ft | 323 kts | 331° |
| 2025-10-24 03:56 | 45.62583 | 84.59031 | 6370 ft | 278 kts | 298° |
| 2025-10-24 03:57 | 45.63180 | 84.53997 | 6242 ft | 247 kts | 257° |
| 2025-10-24 03:57 | 45.61622 | 84.49870 | 6122 ft | 236 kts | 220° |
| 2025-10-24 03:57 | 45.60278 | 84.48556 | 6065 ft | 234 kts | 202° |
| 2025-10-24 03:58 | 45.57150 | 84.47911 | 5962 ft | 230 kts | 168° |
| 2025-10-24 03:58 | 45.54202 | 84.49617 | 5848 ft | 229 kts | 150° |
| 2025-10-24 03:59 | 45.51428 | 84.51862 | 5763 ft | 229 kts | 149° |
| 2025-10-24 03:59 | 45.48665 | 84.54112 | 5647 ft | 229 kts | 149° |
| 2025-10-24 04:00 | 45.45611 | 84.59066 | 5503 ft | 228 kts | 105° |
| 2025-10-24 04:00 | 45.45399 | 84.61299 | 5447 ft | 228 kts | 89° |
| 2025-10-24 04:01 | 45.46380 | 84.65551 | 5343 ft | 231 kts | 55° |
| 2025-10-24 04:01 | 45.48938 | 84.68278 | 5234 ft | 236 kts | 20° |
| 2025-10-24 04:02 | 45.53212 | 84.67790 | 5069 ft | 241 kts | 336° |
| 2025-10-24 04:02 | 45.54705 | 84.66712 | 4959 ft | 240 kts | 333° |
| 2025-10-24 04:03 | 45.57597 | 84.64354 | 4911 ft | 239 kts | 331° |
| 2025-10-24 04:03 | 45.60490 | 84.61983 | 4913 ft | 240 kts | 330° |
| 2025-10-24 04:04 | 45.62259 | 84.58169 | 4901 ft | 240 kts | 272° |
| 2025-10-24 04:04 | 45.60953 | 84.54051 | 4913 ft | 234 kts | 213° |
| 2025-10-24 04:05 | 45.57909 | 84.53359 | 4912 ft | 228 kts | 158° |
| 2025-10-24 04:05 | 45.55104 | 84.55448 | 4908 ft | 228 kts | 149° |
| 2025-10-24 04:06 | 45.52343 | 84.57675 | 4909 ft | 228 kts | 149° |
| 2025-10-24 04:07 | 45.49911 | 84.62904 | 4914 ft | 226 kts | 83° |
| 2025-10-24 04:07 | 45.51601 | 84.66531 | 4902 ft | 231 kts | 29° |
| 2025-10-24 04:07 | 45.53157 | 84.67101 | 4913 ft | 236 kts | 1° |
| 2025-10-24 04:08 | 45.57654 | 84.64256 | 4913 ft | 239 kts | 331° |
| 2025-10-24 04:09 | 45.60525 | 84.61936 | 4910 ft | 240 kts | 330° |
| 2025-10-24 04:09 | 45.62260 | 84.58094 | 4900 ft | 240 kts | 271° |
| 2025-10-24 04:10 | 45.60911 | 84.54009 | 4916 ft | 234 kts | 212° |
| 2025-10-24 04:10 | 45.59425 | 84.53162 | 4904 ft | 230 kts | 184° |
| 2025-10-24 04:11 | 45.55056 | 84.55530 | 4911 ft | 228 kts | 149° |
| 2025-10-24 04:11 | 45.53677 | 84.56643 | 4903 ft | 228 kts | 149° |
| 2025-10-24 04:11 | 45.50965 | 84.58997 | 4907 ft | 227 kts | 134° |
| 2025-10-24 04:12 | 45.50526 | 84.65140 | 4904 ft | 229 kts | 53° |
| 2025-10-24 04:13 | 45.53304 | 84.67093 | 4908 ft | 236 kts | 358° |
| 2025-10-24 04:13 | 45.56331 | 84.65323 | 4902 ft | 238 kts | 332° |
| 2025-10-24 04:13 | 45.57781 | 84.64160 | 4905 ft | 239 kts | 331° |
| 2025-10-24 04:14 | 45.60669 | 84.61808 | 4905 ft | 239 kts | 328° |
| 2025-10-24 04:14 | 45.62259 | 84.57856 | 4905 ft | 239 kts | 268° |
| 2025-10-24 04:15 | 45.60760 | 84.53891 | 4903 ft | 234 kts | 209° |
| 2025-10-24 04:15 | 45.57689 | 84.53532 | 4917 ft | 228 kts | 154° |
| 2025-10-24 04:16 | 45.53509 | 84.56790 | 4903 ft | 228 kts | 149° |
| 2025-10-24 04:17 | 45.50838 | 84.59214 | 4892 ft | 226 kts | 131° |
| 2025-10-24 04:17 | 45.50067 | 84.61144 | 4901 ft | 226 kts | 105° |
| 2025-10-24 04:17 | 45.50674 | 84.65384 | 4905 ft | 229 kts | 51° |
| 2025-10-24 04:18 | 45.53545 | 84.67060 | 4906 ft | 236 kts | 354° |
| 2025-10-24 04:18 | 45.56527 | 84.65168 | 4910 ft | 239 kts | 332° |
| 2025-10-24 04:19 | 45.59422 | 84.62831 | 4902 ft | 239 kts | 332° |
| 2025-10-24 04:19 | 45.61936 | 84.59848 | 4906 ft | 240 kts | 294° |
| 2025-10-24 04:20 | 45.60570 | 84.53736 | 4903 ft | 233 kts | 206° |
| 2025-10-24 04:20 | 45.59031 | 84.53141 | 4896 ft | 230 kts | 178° |
| 2025-10-24 04:21 | 45.56091 | 84.54706 | 4899 ft | 228 kts | 149° |
| 2025-10-24 04:22 | 45.51953 | 84.58049 | 4900 ft | 229 kts | 148° |
| 2025-10-24 04:22 | 45.50026 | 84.61394 | 4899 ft | 226 kts | 101° |
| 2025-10-24 04:23 | 45.50801 | 84.65586 | 4904 ft | 229 kts | 47° |
| 2025-10-24 04:23 | 45.53745 | 84.67029 | 4902 ft | 236 kts | 350° |
| 2025-10-24 04:24 | 45.56722 | 84.65017 | 4911 ft | 239 kts | 331° |
| 2025-10-24 04:24 | 45.58167 | 84.63856 | 4897 ft | 238 kts | 331° |
| 2025-10-24 04:24 | 45.61033 | 84.61458 | 4901 ft | 240 kts | 321° |
| 2025-10-24 04:25 | 45.62219 | 84.57233 | 4906 ft | 239 kts | 260° |
| 2025-10-24 04:26 | 45.58798 | 84.53180 | 4903 ft | 229 kts | 174° |
| 2025-10-24 04:26 | 45.55892 | 84.54902 | 4904 ft | 228 kts | 149° |
| 2025-10-24 04:27 | 45.53115 | 84.57138 | 4911 ft | 229 kts | 149° |
| 2025-10-24 04:27 | 45.50554 | 84.59741 | 4903 ft | 226 kts | 123° |
| 2025-10-24 04:28 | 45.50155 | 84.64016 | 4914 ft | 228 kts | 69° |
| 2025-10-24 04:28 | 45.51034 | 84.65880 | 4904 ft | 229 kts | 42° |
| 2025-10-24 04:28 | 45.54065 | 84.66923 | 4890 ft | 236 kts | 345° |
| 2025-10-24 04:29 | 45.57007 | 84.64783 | 4898 ft | 238 kts | 331° |
| 2025-10-24 04:30 | 45.61610 | 84.63899 | 4888 ft | 231 kts | 33° |
| 2025-10-24 04:30 | 45.63813 | 84.67082 | 4894 ft | 218 kts | 50° |
| 2025-10-24 04:31 | 45.65012 | 84.70604 | 4916 ft | 188 kts | 95° |
| 2025-10-24 04:31 | 45.63796 | 84.73475 | 4913 ft | 166 kts | 137° |
| 2025-10-24 04:31 | 45.62948 | 84.74553 | 4802 ft | 165 kts | 136° |
| 2025-10-24 04:32 | 45.61278 | 84.76684 | 4457 ft | 163 kts | 136° |
| 2025-10-24 04:32 | 45.59555 | 84.78879 | 4022 ft | 168 kts | 136° |
| 2025-10-24 04:33 | 45.57847 | 84.81066 | 3578 ft | 159 kts | 136° |
| 2025-10-24 04:34 | 45.55425 | 84.84144 | 2950 ft | 154 kts | 136° |
| 2025-10-24 04:34 | 45.53921 | 84.86052 | 2601 ft | 148 kts | 136° |
| 2025-10-24 04:35 | 45.52407 | 84.87981 | 2171 ft | 144 kts | 136° |
| 2025-10-24 04:35 | 45.51665 | 84.88925 | 1986 ft | 143 kts | 137° |
| 2025-10-24 04:35 | 45.50193 | 84.90785 | 1629 ft | 141 kts | 137° |
| 2025-10-24 04:36 | 45.48734 | 84.92632 | 1262 ft | 140 kts | 137° |
| 2025-10-24 04:36 | 45.47286 | 84.94471 | 939 ft | 135 kts | 137° |
| 2025-10-24 04:37 | 45.46446 | 84.95517 | 932 ft | 9 kts | 130° |
| 2025-10-24 04:38 | 45.46552 | 84.95471 | 932 ft | 13 kts | 33° |
| 2025-10-24 04:38 | 45.46641 | 84.95602 | 934 ft | 7 kts | 22° |
| 2025-10-24 04:38 | 45.46674 | 84.95642 | 933 ft | 6 kts | 52° |
| 2025-10-24 04:39 | 45.46690 | 84.95670 | 933 ft | 0 kts | 51° |